sensor_id;sensor_type;location;lat;lon;timestamp;P1;durP1;ratioP1;P2;durP2;ratioP2
71464;SDS011;59274;49.874;9.154;2023-05-07T00:01:07;2.45;;;1.42;;
71464;SDS011;59274;49.874;9.154;2023-05-07T00:03:32;4.00;;;1.73;;
71464;SDS011;59274;49.874;9.154;2023-05-07T00:05:58;3.43;;;1.43;;
71464;SDS011;59274;49.874;9.154;2023-05-07T00:08:23;5.30;;;1.33;;
71464;SDS011;59274;49.874;9.154;2023-05-07T00:10:49;2.63;;;1.57;;
71464;SDS011;59274;49.874;9.154;2023-05-07T00:13:14;2.60;;;1.50;;
71464;SDS011;59274;49.874;9.154;2023-05-07T00:15:40;4.97;;;1.58;;
71464;SDS011;59274;49.874;9.154;2023-05-07T00:18:05;3.03;;;1.77;;
71464;SDS011;59274;49.874;9.154;2023-05-07T00:20:31;2.80;;;1.57;;
71464;SDS011;59274;49.874;9.154;2023-05-07T00:22:56;2.78;;;1.42;;
71464;SDS011;59274;49.874;9.154;2023-05-07T00:25:22;2.72;;;1.55;;
71464;SDS011;59274;49.874;9.154;2023-05-07T00:27:47;3.60;;;1.63;;
71464;SDS011;59274;49.874;9.154;2023-05-07T00:30:13;4.07;;;1.90;;
71464;SDS011;59274;49.874;9.154;2023-05-07T00:32:39;3.40;;;1.80;;
71464;SDS011;59274;49.874;9.154;2023-05-07T00:35:05;4.95;;;2.15;;
71464;SDS011;59274;49.874;9.154;2023-05-07T00:37:31;3.50;;;1.70;;
71464;SDS011;59274;49.874;9.154;2023-05-07T00:39:57;3.87;;;1.97;;
71464;SDS011;59274;49.874;9.154;2023-05-07T00:42:22;3.67;;;2.20;;
71464;SDS011;59274;49.874;9.154;2023-05-07T00:44:49;4.47;;;2.20;;
71464;SDS011;59274;49.874;9.154;2023-05-07T00:47:14;4.00;;;1.85;;
71464;SDS011;59274;49.874;9.154;2023-05-07T00:49:44;4.63;;;2.10;;
71464;SDS011;59274;49.874;9.154;2023-05-07T00:52:11;4.53;;;2.03;;
71464;SDS011;59274;49.874;9.154;2023-05-07T00:54:40;4.30;;;2.03;;
71464;SDS011;59274;49.874;9.154;2023-05-07T00:57:06;5.03;;;1.93;;
71464;SDS011;59274;49.874;9.154;2023-05-07T00:59:31;3.15;;;1.60;;
71464;SDS011;59274;49.874;9.154;2023-05-07T01:01:58;3.10;;;1.65;;
71464;SDS011;59274;49.874;9.154;2023-05-07T01:04:24;4.20;;;2.20;;
71464;SDS011;59274;49.874;9.154;2023-05-07T01:06:51;4.40;;;1.90;;
71464;SDS011;59274;49.874;9.154;2023-05-07T01:09:19;3.42;;;1.60;;
71464;SDS011;59274;49.874;9.154;2023-05-07T01:11:46;2.63;;;1.48;;
71464;SDS011;59274;49.874;9.154;2023-05-07T01:14:12;3.40;;;1.65;;
71464;SDS011;59274;49.874;9.154;2023-05-07T01:16:38;5.57;;;2.00;;
71464;SDS011;59274;49.874;9.154;2023-05-07T01:19:05;2.60;;;1.42;;
71464;SDS011;59274;49.874;9.154;2023-05-07T01:21:32;1.60;;;1.13;;
71464;SDS011;59274;49.874;9.154;2023-05-07T01:23:59;2.23;;;1.60;;
71464;SDS011;59274;49.874;9.154;2023-05-07T01:26:25;4.65;;;1.83;;
71464;SDS011;59274;49.874;9.154;2023-05-07T01:28:51;2.23;;;1.20;;
71464;SDS011;59274;49.874;9.154;2023-05-07T01:31:16;2.67;;;1.48;;
71464;SDS011;59274;49.874;9.154;2023-05-07T01:33:42;4.23;;;1.50;;
71464;SDS011;59274;49.874;9.154;2023-05-07T01:36:09;2.35;;;1.45;;
71464;SDS011;59274;49.874;9.154;2023-05-07T01:38:37;2.95;;;1.50;;
71464;SDS011;59274;49.874;9.154;2023-05-07T01:41:03;2.50;;;1.60;;
71464;SDS011;59274;49.874;9.154;2023-05-07T01:43:29;1.70;;;1.13;;
71464;SDS011;59274;49.874;9.154;2023-05-07T01:45:56;2.97;;;1.40;;
71464;SDS011;59274;49.874;9.154;2023-05-07T01:48:26;1.80;;;1.23;;
71464;SDS011;59274;49.874;9.154;2023-05-07T01:50:52;3.30;;;1.40;;
71464;SDS011;59274;49.874;9.154;2023-05-07T01:53:18;2.13;;;1.50;;
71464;SDS011;59274;49.874;9.154;2023-05-07T01:55:44;2.88;;;1.40;;
71464;SDS011;59274;49.874;9.154;2023-05-07T01:58:10;2.65;;;1.70;;
71464;SDS011;59274;49.874;9.154;2023-05-07T02:00:35;1.97;;;1.20;;
71464;SDS011;59274;49.874;9.154;2023-05-07T02:03:01;2.47;;;1.53;;
71464;SDS011;59274;49.874;9.154;2023-05-07T02:05:27;1.88;;;1.48;;
71464;SDS011;59274;49.874;9.154;2023-05-07T02:07:52;2.30;;;1.40;;
71464;SDS011;59274;49.874;9.154;2023-05-07T02:10:17;3.27;;;1.50;;
71464;SDS011;59274;49.874;9.154;2023-05-07T02:12:43;3.28;;;1.60;;
71464;SDS011;59274;49.874;9.154;2023-05-07T02:15:09;2.30;;;1.40;;
71464;SDS011;59274;49.874;9.154;2023-05-07T02:17:38;1.33;;;1.00;;
71464;SDS011;59274;49.874;9.154;2023-05-07T02:20:22;2.85;;;1.58;;
71464;SDS011;59274;49.874;9.154;2023-05-07T02:22:47;3.23;;;1.60;;
71464;SDS011;59274;49.874;9.154;2023-05-07T02:25:13;3.03;;;1.70;;
71464;SDS011;59274;49.874;9.154;2023-05-07T02:27:38;2.63;;;1.50;;
71464;SDS011;59274;49.874;9.154;2023-05-07T02:30:04;1.87;;;1.33;;
71464;SDS011;59274;49.874;9.154;2023-05-07T02:32:30;2.58;;;1.20;;
71464;SDS011;59274;49.874;9.154;2023-05-07T02:34:55;3.93;;;1.70;;
71464;SDS011;59274;49.874;9.154;2023-05-07T02:37:21;5.23;;;1.70;;
71464;SDS011;59274;49.874;9.154;2023-05-07T02:39:46;3.03;;;1.57;;
71464;SDS011;59274;49.874;9.154;2023-05-07T02:42:11;3.42;;;1.75;;
71464;SDS011;59274;49.874;9.154;2023-05-07T02:44:37;3.55;;;1.83;;
71464;SDS011;59274;49.874;9.154;2023-05-07T02:47:03;6.43;;;2.10;;
71464;SDS011;59274;49.874;9.154;2023-05-07T02:49:29;3.03;;;1.80;;
71464;SDS011;59274;49.874;9.154;2023-05-07T02:51:54;1.50;;;1.00;;
71464;SDS011;59274;49.874;9.154;2023-05-07T02:54:20;4.27;;;1.50;;
71464;SDS011;59274;49.874;9.154;2023-05-07T02:56:46;2.38;;;1.35;;
71464;SDS011;59274;49.874;9.154;2023-05-07T02:59:11;2.43;;;1.20;;
71464;SDS011;59274;49.874;9.154;2023-05-07T03:01:37;2.10;;;1.40;;
71464;SDS011;59274;49.874;9.154;2023-05-07T03:04:02;2.20;;;1.37;;
71464;SDS011;59274;49.874;9.154;2023-05-07T03:06:27;2.93;;;1.50;;
71464;SDS011;59274;49.874;9.154;2023-05-07T03:08:53;3.00;;;1.73;;
71464;SDS011;59274;49.874;9.154;2023-05-07T03:11:18;2.20;;;1.30;;
71464;SDS011;59274;49.874;9.154;2023-05-07T03:13:43;3.13;;;1.70;;
71464;SDS011;59274;49.874;9.154;2023-05-07T03:16:09;3.77;;;1.80;;
71464;SDS011;59274;49.874;9.154;2023-05-07T03:18:34;4.20;;;2.07;;
71464;SDS011;59274;49.874;9.154;2023-05-07T03:21:00;3.00;;;1.73;;
71464;SDS011;59274;49.874;9.154;2023-05-07T03:23:25;3.97;;;1.97;;
71464;SDS011;59274;49.874;9.154;2023-05-07T03:25:50;3.40;;;1.77;;
71464;SDS011;59274;49.874;9.154;2023-05-07T03:28:16;3.17;;;1.40;;
71464;SDS011;59274;49.874;9.154;2023-05-07T03:30:41;3.23;;;1.73;;
71464;SDS011;59274;49.874;9.154;2023-05-07T03:33:07;3.33;;;1.70;;
71464;SDS011;59274;49.874;9.154;2023-05-07T03:35:32;3.47;;;1.73;;
71464;SDS011;59274;49.874;9.154;2023-05-07T03:37:57;8.10;;;1.70;;
71464;SDS011;59274;49.874;9.154;2023-05-07T03:40:23;3.60;;;1.50;;
71464;SDS011;59274;49.874;9.154;2023-05-07T03:42:48;3.17;;;2.00;;
71464;SDS011;59274;49.874;9.154;2023-05-07T03:45:14;4.20;;;1.90;;
71464;SDS011;59274;49.874;9.154;2023-05-07T03:47:41;4.15;;;1.63;;
71464;SDS011;59274;49.874;9.154;2023-05-07T03:50:07;3.93;;;2.10;;
71464;SDS011;59274;49.874;9.154;2023-05-07T03:52:32;3.97;;;1.93;;
71464;SDS011;59274;49.874;9.154;2023-05-07T03:54:58;4.55;;;1.48;;
71464;SDS011;59274;49.874;9.154;2023-05-07T03:57:23;4.47;;;1.90;;
71464;SDS011;59274;49.874;9.154;2023-05-07T03:59:49;3.20;;;1.70;;
71464;SDS011;59274;49.874;9.154;2023-05-07T04:02:14;2.93;;;1.60;;
71464;SDS011;59274;49.874;9.154;2023-05-07T04:04:39;3.43;;;1.83;;
71464;SDS011;59274;49.874;9.154;2023-05-07T04:07:05;1.92;;;1.30;;
71464;SDS011;59274;49.874;9.154;2023-05-07T04:09:30;4.40;;;1.80;;
71464;SDS011;59274;49.874;9.154;2023-05-07T04:11:56;2.90;;;1.50;;
71464;SDS011;59274;49.874;9.154;2023-05-07T04:14:21;2.50;;;1.60;;
71464;SDS011;59274;49.874;9.154;2023-05-07T04:16:47;2.88;;;1.70;;
71464;SDS011;59274;49.874;9.154;2023-05-07T04:19:12;2.87;;;1.50;;
71464;SDS011;59274;49.874;9.154;2023-05-07T04:21:37;3.37;;;1.60;;
71464;SDS011;59274;49.874;9.154;2023-05-07T04:24:03;3.27;;;1.50;;
71464;SDS011;59274;49.874;9.154;2023-05-07T04:26:28;2.50;;;1.60;;
71464;SDS011;59274;49.874;9.154;2023-05-07T04:28:54;3.63;;;1.77;;
71464;SDS011;59274;49.874;9.154;2023-05-07T04:31:20;2.27;;;1.67;;
71464;SDS011;59274;49.874;9.154;2023-05-07T04:33:46;3.17;;;1.70;;
71464;SDS011;59274;49.874;9.154;2023-05-07T04:36:11;2.73;;;1.57;;
71464;SDS011;59274;49.874;9.154;2023-05-07T04:38:36;4.07;;;1.67;;
71464;SDS011;59274;49.874;9.154;2023-05-07T04:41:03;3.22;;;1.75;;
71464;SDS011;59274;49.874;9.154;2023-05-07T04:43:30;3.47;;;1.63;;
71464;SDS011;59274;49.874;9.154;2023-05-07T04:45:55;3.22;;;1.77;;
71464;SDS011;59274;49.874;9.154;2023-05-07T04:48:21;3.20;;;1.57;;
71464;SDS011;59274;49.874;9.154;2023-05-07T04:50:49;4.00;;;2.00;;
71464;SDS011;59274;49.874;9.154;2023-05-07T04:53:15;4.32;;;2.30;;
71464;SDS011;59274;49.874;9.154;2023-05-07T04:55:40;3.47;;;1.57;;
71464;SDS011;59274;49.874;9.154;2023-05-07T04:58:05;3.90;;;2.00;;
71464;SDS011;59274;49.874;9.154;2023-05-07T05:00:32;4.28;;;1.95;;
71464;SDS011;59274;49.874;9.154;2023-05-07T05:02:58;3.67;;;1.83;;
71464;SDS011;59274;49.874;9.154;2023-05-07T05:05:23;4.53;;;1.90;;
71464;SDS011;59274;49.874;9.154;2023-05-07T05:07:49;3.33;;;1.70;;
71464;SDS011;59274;49.874;9.154;2023-05-07T05:10:14;3.63;;;2.00;;
71464;SDS011;59274;49.874;9.154;2023-05-07T05:12:41;3.25;;;1.77;;
71464;SDS011;59274;49.874;9.154;2023-05-07T05:15:06;4.00;;;2.23;;
71464;SDS011;59274;49.874;9.154;2023-05-07T05:17:32;3.58;;;1.90;;
71464;SDS011;59274;49.874;9.154;2023-05-07T05:19:59;4.63;;;2.28;;
71464;SDS011;59274;49.874;9.154;2023-05-07T05:22:25;3.73;;;2.07;;
71464;SDS011;59274;49.874;9.154;2023-05-07T05:24:50;6.37;;;2.57;;
71464;SDS011;59274;49.874;9.154;2023-05-07T05:27:16;4.72;;;2.22;;
71464;SDS011;59274;49.874;9.154;2023-05-07T05:29:41;3.83;;;1.97;;
71464;SDS011;59274;49.874;9.154;2023-05-07T05:32:07;4.40;;;2.30;;
71464;SDS011;59274;49.874;9.154;2023-05-07T05:34:32;5.20;;;2.60;;
71464;SDS011;59274;49.874;9.154;2023-05-07T05:36:58;4.47;;;2.17;;
71464;SDS011;59274;49.874;9.154;2023-05-07T05:39:24;4.55;;;1.70;;
71464;SDS011;59274;49.874;9.154;2023-05-07T05:41:49;3.83;;;1.93;;
71464;SDS011;59274;49.874;9.154;2023-05-07T05:44:15;4.53;;;1.83;;
71464;SDS011;59274;49.874;9.154;2023-05-07T05:46:40;5.20;;;2.40;;
71464;SDS011;59274;49.874;9.154;2023-05-07T05:49:06;5.00;;;2.28;;
71464;SDS011;59274;49.874;9.154;2023-05-07T05:51:32;3.83;;;1.90;;
71464;SDS011;59274;49.874;9.154;2023-05-07T05:53:57;3.85;;;1.77;;
71464;SDS011;59274;49.874;9.154;2023-05-07T05:56:22;3.33;;;2.10;;
71464;SDS011;59274;49.874;9.154;2023-05-07T05:58:48;6.03;;;2.37;;
71464;SDS011;59274;49.874;9.154;2023-05-07T06:01:13;6.47;;;2.83;;
71464;SDS011;59274;49.874;9.154;2023-05-07T06:03:39;4.70;;;2.20;;
71464;SDS011;59274;49.874;9.154;2023-05-07T06:06:04;5.43;;;2.47;;
71464;SDS011;59274;49.874;9.154;2023-05-07T06:08:30;4.78;;;2.33;;
71464;SDS011;59274;49.874;9.154;2023-05-07T06:10:56;6.80;;;2.45;;
71464;SDS011;59274;49.874;9.154;2023-05-07T06:13:22;3.20;;;1.90;;
71464;SDS011;59274;49.874;9.154;2023-05-07T06:15:48;5.63;;;2.38;;
71464;SDS011;59274;49.874;9.154;2023-05-07T06:18:14;4.78;;;2.25;;
71464;SDS011;59274;49.874;9.154;2023-05-07T06:20:42;3.17;;;1.83;;
71464;SDS011;59274;49.874;9.154;2023-05-07T06:23:07;4.47;;;2.13;;
71464;SDS011;59274;49.874;9.154;2023-05-07T06:25:33;4.00;;;1.93;;
71464;SDS011;59274;49.874;9.154;2023-05-07T06:27:58;6.60;;;2.33;;
71464;SDS011;59274;49.874;9.154;2023-05-07T06:30:24;3.57;;;2.20;;
71464;SDS011;59274;49.874;9.154;2023-05-07T06:32:49;3.97;;;2.00;;
71464;SDS011;59274;49.874;9.154;2023-05-07T06:35:14;4.27;;;2.23;;
71464;SDS011;59274;49.874;9.154;2023-05-07T06:37:41;4.73;;;2.07;;
71464;SDS011;59274;49.874;9.154;2023-05-07T06:40:08;3.55;;;1.85;;
71464;SDS011;59274;49.874;9.154;2023-05-07T06:42:33;3.80;;;2.00;;
71464;SDS011;59274;49.874;9.154;2023-05-07T06:45:00;4.13;;;2.00;;
71464;SDS011;59274;49.874;9.154;2023-05-07T06:47:26;3.35;;;1.73;;
71464;SDS011;59274;49.874;9.154;2023-05-07T06:49:51;4.10;;;1.87;;
71464;SDS011;59274;49.874;9.154;2023-05-07T06:52:16;4.47;;;2.27;;
71464;SDS011;59274;49.874;9.154;2023-05-07T06:54:42;3.00;;;1.67;;
71464;SDS011;59274;49.874;9.154;2023-05-07T06:57:07;3.38;;;1.88;;
71464;SDS011;59274;49.874;9.154;2023-05-07T06:59:33;2.77;;;1.60;;
71464;SDS011;59274;49.874;9.154;2023-05-07T07:01:58;3.47;;;1.80;;
71464;SDS011;59274;49.874;9.154;2023-05-07T07:04:24;3.28;;;1.88;;
71464;SDS011;59274;49.874;9.154;2023-05-07T07:06:51;3.47;;;1.88;;
71464;SDS011;59274;49.874;9.154;2023-05-07T07:09:17;4.27;;;2.13;;
71464;SDS011;59274;49.874;9.154;2023-05-07T07:11:43;2.78;;;1.67;;
71464;SDS011;59274;49.874;9.154;2023-05-07T07:14:08;3.87;;;1.73;;
71464;SDS011;59274;49.874;9.154;2023-05-07T07:16:34;3.77;;;2.00;;
71464;SDS011;59274;49.874;9.154;2023-05-07T07:18:59;3.20;;;1.90;;
71464;SDS011;59274;49.874;9.154;2023-05-07T07:21:25;6.53;;;2.10;;
71464;SDS011;59274;49.874;9.154;2023-05-07T07:23:50;4.30;;;1.90;;
71464;SDS011;59274;49.874;9.154;2023-05-07T07:26:15;5.07;;;1.90;;
71464;SDS011;59274;49.874;9.154;2023-05-07T07:28:44;3.33;;;1.80;;
71464;SDS011;59274;49.874;9.154;2023-05-07T07:31:11;4.30;;;2.03;;
71464;SDS011;59274;49.874;9.154;2023-05-07T07:33:36;4.25;;;1.98;;
71464;SDS011;59274;49.874;9.154;2023-05-07T07:36:02;4.32;;;2.17;;
71464;SDS011;59274;49.874;9.154;2023-05-07T07:38:27;4.83;;;2.20;;
71464;SDS011;59274;49.874;9.154;2023-05-07T07:40:53;3.30;;;1.80;;
71464;SDS011;59274;49.874;9.154;2023-05-07T07:43:18;5.07;;;2.40;;
71464;SDS011;59274;49.874;9.154;2023-05-07T07:45:43;3.85;;;1.83;;
71464;SDS011;59274;49.874;9.154;2023-05-07T07:48:10;4.37;;;1.90;;
71464;SDS011;59274;49.874;9.154;2023-05-07T07:50:36;3.25;;;1.80;;
71464;SDS011;59274;49.874;9.154;2023-05-07T07:53:02;4.10;;;2.00;;
71464;SDS011;59274;49.874;9.154;2023-05-07T07:55:27;3.60;;;2.00;;
71464;SDS011;59274;49.874;9.154;2023-05-07T07:57:53;3.47;;;1.90;;
71464;SDS011;59274;49.874;9.154;2023-05-07T08:00:18;3.80;;;2.00;;
71464;SDS011;59274;49.874;9.154;2023-05-07T08:02:44;3.40;;;1.98;;
71464;SDS011;59274;49.874;9.154;2023-05-07T08:05:09;4.33;;;2.00;;
71464;SDS011;59274;49.874;9.154;2023-05-07T08:07:35;3.67;;;1.90;;
71464;SDS011;59274;49.874;9.154;2023-05-07T08:10:00;3.35;;;1.73;;
71464;SDS011;59274;49.874;9.154;2023-05-07T08:12:26;3.35;;;1.92;;
71464;SDS011;59274;49.874;9.154;2023-05-07T08:14:51;3.60;;;1.97;;
71464;SDS011;59274;49.874;9.154;2023-05-07T08:17:17;2.93;;;1.47;;
71464;SDS011;59274;49.874;9.154;2023-05-07T08:19:42;3.65;;;1.73;;
71464;SDS011;59274;49.874;9.154;2023-05-07T08:22:09;3.17;;;1.67;;
71464;SDS011;59274;49.874;9.154;2023-05-07T08:24:35;3.70;;;2.17;;
71464;SDS011;59274;49.874;9.154;2023-05-07T08:27:01;4.60;;;2.28;;
71464;SDS011;59274;49.874;9.154;2023-05-07T08:29:26;4.17;;;2.30;;
71464;SDS011;59274;49.874;9.154;2023-05-07T08:31:52;3.43;;;1.90;;
71464;SDS011;59274;49.874;9.154;2023-05-07T08:34:17;3.63;;;2.03;;
71464;SDS011;59274;49.874;9.154;2023-05-07T08:36:43;4.60;;;2.30;;
71464;SDS011;59274;49.874;9.154;2023-05-07T08:39:09;2.70;;;1.80;;
71464;SDS011;59274;49.874;9.154;2023-05-07T08:41:34;4.67;;;2.27;;
71464;SDS011;59274;49.874;9.154;2023-05-07T08:43:59;4.28;;;2.40;;
71464;SDS011;59274;49.874;9.154;2023-05-07T08:46:30;4.25;;;2.10;;
71464;SDS011;59274;49.874;9.154;2023-05-07T08:48:56;3.67;;;2.30;;
71464;SDS011;59274;49.874;9.154;2023-05-07T08:51:22;3.95;;;2.03;;
71464;SDS011;59274;49.874;9.154;2023-05-07T08:53:48;3.17;;;2.03;;
71464;SDS011;59274;49.874;9.154;2023-05-07T08:56:15;8.25;;;2.40;;
71464;SDS011;59274;49.874;9.154;2023-05-07T08:58:41;3.70;;;1.97;;
71464;SDS011;59274;49.874;9.154;2023-05-07T09:01:08;4.28;;;2.30;;
71464;SDS011;59274;49.874;9.154;2023-05-07T09:03:37;4.20;;;2.28;;
71464;SDS011;59274;49.874;9.154;2023-05-07T09:06:03;4.22;;;2.22;;
71464;SDS011;59274;49.874;9.154;2023-05-07T09:08:28;3.40;;;2.10;;
71464;SDS011;59274;49.874;9.154;2023-05-07T09:10:54;4.32;;;2.10;;
71464;SDS011;59274;49.874;9.154;2023-05-07T09:13:19;4.40;;;2.20;;
71464;SDS011;59274;49.874;9.154;2023-05-07T09:15:45;4.07;;;2.40;;
71464;SDS011;59274;49.874;9.154;2023-05-07T09:18:12;3.90;;;2.20;;
71464;SDS011;59274;49.874;9.154;2023-05-07T09:20:38;4.70;;;2.30;;
71464;SDS011;59274;49.874;9.154;2023-05-07T09:23:03;3.83;;;1.97;;
71464;SDS011;59274;49.874;9.154;2023-05-07T09:25:33;4.20;;;2.17;;
71464;SDS011;59274;49.874;9.154;2023-05-07T09:28:00;4.68;;;2.38;;
71464;SDS011;59274;49.874;9.154;2023-05-07T09:30:29;5.60;;;2.60;;
71464;SDS011;59274;49.874;9.154;2023-05-07T09:32:57;4.83;;;2.27;;
71464;SDS011;59274;49.874;9.154;2023-05-07T09:35:23;4.95;;;2.22;;
71464;SDS011;59274;49.874;9.154;2023-05-07T09:37:52;4.57;;;2.20;;
71464;SDS011;59274;49.874;9.154;2023-05-07T09:40:26;4.25;;;2.20;;
71464;SDS011;59274;49.874;9.154;2023-05-07T09:42:53;4.35;;;2.40;;
71464;SDS011;59274;49.874;9.154;2023-05-07T09:45:25;4.93;;;2.57;;
71464;SDS011;59274;49.874;9.154;2023-05-07T09:47:53;4.30;;;2.35;;
71464;SDS011;59274;49.874;9.154;2023-05-07T09:50:22;5.30;;;2.25;;
71464;SDS011;59274;49.874;9.154;2023-05-07T09:52:52;4.03;;;2.35;;
71464;SDS011;59274;49.874;9.154;2023-05-07T09:55:19;4.78;;;2.67;;
71464;SDS011;59274;49.874;9.154;2023-05-07T09:57:45;4.03;;;2.20;;
71464;SDS011;59274;49.874;9.154;2023-05-07T10:00:12;4.40;;;2.30;;
71464;SDS011;59274;49.874;9.154;2023-05-07T10:02:38;4.72;;;2.40;;
71464;SDS011;59274;49.874;9.154;2023-05-07T10:05:12;5.68;;;2.60;;
71464;SDS011;59274;49.874;9.154;2023-05-07T10:07:41;4.50;;;2.33;;
71464;SDS011;59274;49.874;9.154;2023-05-07T10:10:07;3.78;;;2.03;;
71464;SDS011;59274;49.874;9.154;2023-05-07T10:12:33;4.18;;;2.55;;
71464;SDS011;59274;49.874;9.154;2023-05-07T10:15:05;4.60;;;2.42;;
71464;SDS011;59274;49.874;9.154;2023-05-07T10:17:32;4.75;;;2.80;;
71464;SDS011;59274;49.874;9.154;2023-05-07T10:20:01;3.77;;;2.20;;
71464;SDS011;59274;49.874;9.154;2023-05-07T10:22:27;5.30;;;2.53;;
71464;SDS011;59274;49.874;9.154;2023-05-07T10:24:55;3.92;;;2.40;;
71464;SDS011;59274;49.874;9.154;2023-05-07T10:27:24;7.43;;;2.40;;
71464;SDS011;59274;49.874;9.154;2023-05-07T10:30:00;4.75;;;2.58;;
71464;SDS011;59274;49.874;9.154;2023-05-07T10:32:37;5.17;;;2.13;;
71464;SDS011;59274;49.874;9.154;2023-05-07T10:35:06;4.40;;;2.10;;
71464;SDS011;59274;49.874;9.154;2023-05-07T10:37:39;5.70;;;2.60;;
71464;SDS011;59274;49.874;9.154;2023-05-07T10:40:05;4.18;;;2.30;;
71464;SDS011;59274;49.874;9.154;2023-05-07T10:42:32;5.07;;;2.40;;
71464;SDS011;59274;49.874;9.154;2023-05-07T10:44:57;3.40;;;2.00;;
71464;SDS011;59274;49.874;9.154;2023-05-07T10:47:36;3.97;;;2.08;;
71464;SDS011;59274;49.874;9.154;2023-05-07T10:50:35;4.93;;;2.20;;
71464;SDS011;59274;49.874;9.154;2023-05-07T10:55:45;3.25;;;2.05;;
71464;SDS011;59274;49.874;9.154;2023-05-07T11:00:47;3.70;;;2.20;;
71464;SDS011;59274;49.874;9.154;2023-05-07T11:03:16;3.15;;;2.00;;
71464;SDS011;59274;49.874;9.154;2023-05-07T11:05:42;3.77;;;2.00;;
71464;SDS011;59274;49.874;9.154;2023-05-07T11:08:08;3.13;;;1.93;;
71464;SDS011;59274;49.874;9.154;2023-05-07T11:13:16;3.53;;;2.00;;
71464;SDS011;59274;49.874;9.154;2023-05-07T11:15:44;5.55;;;2.10;;
71464;SDS011;59274;49.874;9.154;2023-05-07T11:18:16;4.32;;;2.50;;
71464;SDS011;59274;49.874;9.154;2023-05-07T11:25:59;4.03;;;2.30;;
71464;SDS011;59274;49.874;9.154;2023-05-07T11:28:25;3.90;;;2.10;;
71464;SDS011;59274;49.874;9.154;2023-05-07T11:30:53;3.03;;;1.65;;
71464;SDS011;59274;49.874;9.154;2023-05-07T11:33:19;3.77;;;2.13;;
71464;SDS011;59274;49.874;9.154;2023-05-07T11:35:44;3.03;;;1.80;;
71464;SDS011;59274;49.874;9.154;2023-05-07T11:38:11;4.00;;;2.00;;
71464;SDS011;59274;49.874;9.154;2023-05-07T11:40:50;4.50;;;2.20;;
71464;SDS011;59274;49.874;9.154;2023-05-07T11:43:16;2.92;;;1.90;;
71464;SDS011;59274;49.874;9.154;2023-05-07T11:45:42;2.45;;;1.65;;
71464;SDS011;59274;49.874;9.154;2023-05-07T11:48:07;3.23;;;1.70;;
71464;SDS011;59274;49.874;9.154;2023-05-07T11:50:33;2.72;;;1.73;;
71464;SDS011;59274;49.874;9.154;2023-05-07T11:52:59;3.40;;;1.70;;
71464;SDS011;59274;49.874;9.154;2023-05-07T11:55:24;2.87;;;1.80;;
71464;SDS011;59274;49.874;9.154;2023-05-07T11:57:51;2.63;;;1.80;;
71464;SDS011;59274;49.874;9.154;2023-05-07T12:00:16;3.00;;;1.70;;
71464;SDS011;59274;49.874;9.154;2023-05-07T12:02:43;3.15;;;1.90;;
71464;SDS011;59274;49.874;9.154;2023-05-07T12:05:10;2.10;;;1.60;;
71464;SDS011;59274;49.874;9.154;2023-05-07T12:07:35;2.60;;;1.60;;
71464;SDS011;59274;49.874;9.154;2023-05-07T12:10:05;3.67;;;1.85;;
71464;SDS011;59274;49.874;9.154;2023-05-07T12:12:31;3.33;;;1.93;;
71464;SDS011;59274;49.874;9.154;2023-05-07T12:15:03;2.22;;;1.60;;
71464;SDS011;59274;49.874;9.154;2023-05-07T12:17:29;2.78;;;1.77;;
71464;SDS011;59274;49.874;9.154;2023-05-07T12:19:55;4.00;;;1.90;;
71464;SDS011;59274;49.874;9.154;2023-05-07T12:22:20;2.63;;;1.65;;
71464;SDS011;59274;49.874;9.154;2023-05-07T12:24:46;3.43;;;1.70;;
71464;SDS011;59274;49.874;9.154;2023-05-07T12:27:16;2.80;;;1.90;;
71464;SDS011;59274;49.874;9.154;2023-05-07T12:29:48;3.40;;;1.90;;
71464;SDS011;59274;49.874;9.154;2023-05-07T12:32:15;2.97;;;1.88;;
71464;SDS011;59274;49.874;9.154;2023-05-07T12:34:42;3.08;;;1.90;;
71464;SDS011;59274;49.874;9.154;2023-05-07T12:37:07;2.78;;;1.80;;
71464;SDS011;59274;49.874;9.154;2023-05-07T12:39:33;3.97;;;2.00;;
71464;SDS011;59274;49.874;9.154;2023-05-07T12:41:58;4.83;;;2.13;;
71464;SDS011;59274;49.874;9.154;2023-05-07T12:44:25;4.70;;;2.08;;
71464;SDS011;59274;49.874;9.154;2023-05-07T12:49:40;4.13;;;2.33;;
71464;SDS011;59274;49.874;9.154;2023-05-07T12:52:06;3.90;;;2.27;;
71464;SDS011;59274;49.874;9.154;2023-05-07T12:54:32;3.65;;;2.13;;
71464;SDS011;59274;49.874;9.154;2023-05-07T12:57:05;3.33;;;2.10;;
71464;SDS011;59274;49.874;9.154;2023-05-07T12:59:36;3.63;;;2.13;;
71464;SDS011;59274;49.874;9.154;2023-05-07T13:02:02;4.75;;;2.20;;
71464;SDS011;59274;49.874;9.154;2023-05-07T13:04:28;2.93;;;1.77;;
71464;SDS011;59274;49.874;9.154;2023-05-07T13:06:55;3.97;;;2.10;;
71464;SDS011;59274;49.874;9.154;2023-05-07T13:09:20;2.50;;;1.83;;
71464;SDS011;59274;49.874;9.154;2023-05-07T13:11:45;3.57;;;1.83;;
71464;SDS011;59274;49.874;9.154;2023-05-07T13:14:11;3.27;;;2.07;;
71464;SDS011;59274;49.874;9.154;2023-05-07T13:16:37;2.25;;;1.60;;
71464;SDS011;59274;49.874;9.154;2023-05-07T13:19:03;3.73;;;2.00;;
71464;SDS011;59274;49.874;9.154;2023-05-07T13:21:29;3.28;;;2.05;;
71464;SDS011;59274;49.874;9.154;2023-05-07T13:23:56;4.10;;;1.80;;
71464;SDS011;59274;49.874;9.154;2023-05-07T13:26:23;3.30;;;1.73;;
71464;SDS011;59274;49.874;9.154;2023-05-07T13:28:48;3.53;;;1.80;;
71464;SDS011;59274;49.874;9.154;2023-05-07T13:31:14;3.00;;;1.90;;
71464;SDS011;59274;49.874;9.154;2023-05-07T13:33:39;2.67;;;2.10;;
71464;SDS011;59274;49.874;9.154;2023-05-07T13:36:05;2.93;;;1.90;;
71464;SDS011;59274;49.874;9.154;2023-05-07T13:38:30;3.35;;;1.83;;
71464;SDS011;59274;49.874;9.154;2023-05-07T13:40:56;2.83;;;1.77;;
71464;SDS011;59274;49.874;9.154;2023-05-07T13:43:21;2.40;;;1.80;;
71464;SDS011;59274;49.874;9.154;2023-05-07T13:45:47;2.97;;;1.73;;
71464;SDS011;59274;49.874;9.154;2023-05-07T13:48:12;2.67;;;1.80;;
71464;SDS011;59274;49.874;9.154;2023-05-07T13:50:37;3.57;;;2.10;;
71464;SDS011;59274;49.874;9.154;2023-05-07T13:53:03;2.70;;;1.80;;
71464;SDS011;59274;49.874;9.154;2023-05-07T13:55:29;3.20;;;1.90;;
71464;SDS011;59274;49.874;9.154;2023-05-07T13:57:58;2.37;;;1.70;;
71464;SDS011;59274;49.874;9.154;2023-05-07T14:00:25;2.65;;;1.73;;
71464;SDS011;59274;49.874;9.154;2023-05-07T14:02:52;2.80;;;1.67;;
71464;SDS011;59274;49.874;9.154;2023-05-07T14:05:18;2.63;;;1.70;;
71464;SDS011;59274;49.874;9.154;2023-05-07T14:07:43;2.40;;;1.50;;
71464;SDS011;59274;49.874;9.154;2023-05-07T14:10:09;2.50;;;1.60;;
71464;SDS011;59274;49.874;9.154;2023-05-07T14:12:36;2.90;;;1.90;;
71464;SDS011;59274;49.874;9.154;2023-05-07T14:15:02;3.03;;;2.03;;
71464;SDS011;59274;49.874;9.154;2023-05-07T14:17:28;2.80;;;1.77;;
71464;SDS011;59274;49.874;9.154;2023-05-07T14:19:53;2.10;;;1.40;;
71464;SDS011;59274;49.874;9.154;2023-05-07T14:22:20;3.50;;;1.88;;
71464;SDS011;59274;49.874;9.154;2023-05-07T14:24:47;2.95;;;1.77;;
71464;SDS011;59274;49.874;9.154;2023-05-07T14:27:12;2.70;;;1.70;;
71464;SDS011;59274;49.874;9.154;2023-05-07T14:29:37;4.20;;;1.73;;
71464;SDS011;59274;49.874;9.154;2023-05-07T14:32:03;2.70;;;1.60;;
71464;SDS011;59274;49.874;9.154;2023-05-07T14:34:29;2.65;;;1.60;;
71464;SDS011;59274;49.874;9.154;2023-05-07T14:36:54;3.20;;;1.60;;
71464;SDS011;59274;49.874;9.154;2023-05-07T14:39:20;4.03;;;1.90;;
71464;SDS011;59274;49.874;9.154;2023-05-07T14:41:47;2.50;;;1.63;;
71464;SDS011;59274;49.874;9.154;2023-05-07T14:44:12;4.50;;;1.63;;
71464;SDS011;59274;49.874;9.154;2023-05-07T14:46:38;3.63;;;2.00;;
71464;SDS011;59274;49.874;9.154;2023-05-07T14:49:03;2.83;;;1.70;;
71464;SDS011;59274;49.874;9.154;2023-05-07T14:51:29;3.17;;;1.73;;
71464;SDS011;59274;49.874;9.154;2023-05-07T14:53:55;3.60;;;1.90;;
71464;SDS011;59274;49.874;9.154;2023-05-07T14:56:21;2.83;;;1.80;;
71464;SDS011;59274;49.874;9.154;2023-05-07T14:58:47;3.13;;;1.80;;